sensor_id;sensor_type;location;lat;lon;timestamp;pressure;altitude;pressure_sealevel;temperature;humidity
37832;BME280;23671;38.090;-122.570;2023-03-25T00:00:10;102876.81;;;18.02;52.35
37832;BME280;23671;38.090;-122.570;2023-03-25T00:02:43;102870.88;;;17.99;52.31
37832;BME280;23671;38.090;-122.570;2023-03-25T00:05:12;102873.28;;;18.02;52.53
37832;BME280;23671;38.090;-122.570;2023-03-25T00:07:43;102874.28;;;18.01;52.65
37832;BME280;23671;38.090;-122.570;2023-03-25T00:10:12;102865.72;;;17.96;52.30
37832;BME280;23671;38.090;-122.570;2023-03-25T00:12:39;102867.78;;;17.92;52.47
37832;BME280;23671;38.090;-122.570;2023-03-25T00:15:09;102874.09;;;17.91;52.44
37832;BME280;23671;38.090;-122.570;2023-03-25T00:17:36;102873.47;;;17.88;52.72
37832;BME280;23671;38.090;-122.570;2023-03-25T00:20:05;102872.75;;;17.86;52.73
37832;BME280;23671;38.090;-122.570;2023-03-25T00:22:35;102870.94;;;17.86;52.47
37832;BME280;23671;38.090;-122.570;2023-03-25T00:25:12;102868.59;;;17.82;52.56
37832;BME280;23671;38.090;-122.570;2023-03-25T00:27:42;102870.53;;;17.80;52.79
37832;BME280;23671;38.090;-122.570;2023-03-25T00:30:11;102871.50;;;17.79;52.83
37832;BME280;23671;38.090;-122.570;2023-03-25T00:32:38;102869.81;;;17.78;52.87
37832;BME280;23671;38.090;-122.570;2023-03-25T00:35:06;102871.50;;;17.79;52.75
37832;BME280;23671;38.090;-122.570;2023-03-25T00:37:34;102875.94;;;17.67;52.59
37832;BME280;23671;38.090;-122.570;2023-03-25T00:40:01;102862.59;;;17.67;52.72
37832;BME280;23671;38.090;-122.570;2023-03-25T00:42:29;102876.06;;;17.66;52.29
37832;BME280;23671;38.090;-122.570;2023-03-25T00:44:56;102881.00;;;17.59;52.02
37832;BME280;23671;38.090;-122.570;2023-03-25T00:47:23;102877.38;;;17.60;51.43
37832;BME280;23671;38.090;-122.570;2023-03-25T00:49:50;102874.41;;;17.52;52.27
37832;BME280;23671;38.090;-122.570;2023-03-25T00:52:18;102864.94;;;17.48;51.75
37832;BME280;23671;38.090;-122.570;2023-03-25T00:54:48;102871.31;;;17.46;51.89
37832;BME280;23671;38.090;-122.570;2023-03-25T00:57:16;102870.44;;;17.45;52.07
37832;BME280;23671;38.090;-122.570;2023-03-25T00:59:43;102869.75;;;17.43;52.16
37832;BME280;23671;38.090;-122.570;2023-03-25T01:02:10;102869.44;;;17.35;52.41
37832;BME280;23671;38.090;-122.570;2023-03-25T01:04:38;102873.06;;;17.34;52.33
37832;BME280;23671;38.090;-122.570;2023-03-25T01:07:05;102866.16;;;17.32;52.40
37832;BME280;23671;38.090;-122.570;2023-03-25T01:09:33;102874.59;;;17.25;52.56
37832;BME280;23671;38.090;-122.570;2023-03-25T01:12:00;102873.84;;;17.23;52.28
37832;BME280;23671;38.090;-122.570;2023-03-25T01:14:27;102860.84;;;17.19;52.14
37832;BME280;23671;38.090;-122.570;2023-03-25T01:16:55;102869.91;;;17.16;51.45
37832;BME280;23671;38.090;-122.570;2023-03-25T01:19:26;102859.91;;;17.07;51.92
37832;BME280;23671;38.090;-122.570;2023-03-25T01:21:54;102864.25;;;17.08;52.00
37832;BME280;23671;38.090;-122.570;2023-03-25T01:24:21;102851.41;;;17.02;52.05
37832;BME280;23671;38.090;-122.570;2023-03-25T01:26:48;102855.13;;;17.00;51.64
37832;BME280;23671;38.090;-122.570;2023-03-25T01:29:20;102858.00;;;16.97;52.26
37832;BME280;23671;38.090;-122.570;2023-03-25T01:31:47;102862.81;;;16.92;52.41
37832;BME280;23671;38.090;-122.570;2023-03-25T01:34:15;102868.03;;;16.93;52.36
37832;BME280;23671;38.090;-122.570;2023-03-25T01:36:42;102868.47;;;16.87;52.28
37832;BME280;23671;38.090;-122.570;2023-03-25T01:39:13;102859.72;;;16.85;52.43
37832;BME280;23671;38.090;-122.570;2023-03-25T01:41:43;102861.88;;;16.80;52.62
37832;BME280;23671;38.090;-122.570;2023-03-25T01:47:00;102865.84;;;16.75;52.10
37832;BME280;23671;38.090;-122.570;2023-03-25T01:49:41;102855.50;;;16.70;52.68
37832;BME280;23671;38.090;-122.570;2023-03-25T01:52:20;102855.59;;;16.69;52.08
37832;BME280;23671;38.090;-122.570;2023-03-25T01:54:51;102856.16;;;16.61;51.80
37832;BME280;23671;38.090;-122.570;2023-03-25T01:57:20;102857.13;;;16.60;52.17
37832;BME280;23671;38.090;-122.570;2023-03-25T01:59:48;102846.88;;;16.54;52.01
37832;BME280;23671;38.090;-122.570;2023-03-25T02:02:17;102844.63;;;16.48;52.26
37832;BME280;23671;38.090;-122.570;2023-03-25T02:05:00;102845.56;;;16.47;52.21
37832;BME280;23671;38.090;-122.570;2023-03-25T02:07:34;102846.94;;;16.40;52.42
37832;BME280;23671;38.090;-122.570;2023-03-25T02:10:05;102836.72;;;16.34;51.77
37832;BME280;23671;38.090;-122.570;2023-03-25T02:12:33;102837.88;;;16.30;51.26
37832;BME280;23671;38.090;-122.570;2023-03-25T02:15:02;102843.75;;;16.22;51.32
37832;BME280;23671;38.090;-122.570;2023-03-25T02:20:56;102848.09;;;16.11;50.96
37832;BME280;23671;38.090;-122.570;2023-03-25T02:26:18;102865.06;;;16.10;51.02
37832;BME280;23671;38.090;-122.570;2023-03-25T02:29:21;102865.91;;;15.98;51.41
37832;BME280;23671;38.090;-122.570;2023-03-25T02:32:18;102861.84;;;15.92;51.09
37832;BME280;23671;38.090;-122.570;2023-03-25T02:40:24;102845.47;;;15.72;50.70
37832;BME280;23671;38.090;-122.570;2023-03-25T02:43:09;102841.31;;;15.68;50.39
37832;BME280;23671;38.090;-122.570;2023-03-25T02:45:50;102829.25;;;15.62;50.71
37832;BME280;23671;38.090;-122.570;2023-03-25T02:51:34;102829.00;;;15.53;50.19
37832;BME280;23671;38.090;-122.570;2023-03-25T02:54:07;102832.06;;;15.46;50.45
37832;BME280;23671;38.090;-122.570;2023-03-25T02:56:37;102824.56;;;15.39;50.59
37832;BME280;23671;38.090;-122.570;2023-03-25T02:59:07;102826.69;;;15.34;50.34
37832;BME280;23671;38.090;-122.570;2023-03-25T03:01:35;102831.34;;;15.30;50.06
37832;BME280;23671;38.090;-122.570;2023-03-25T03:04:02;102831.22;;;15.19;50.76
37832;BME280;23671;38.090;-122.570;2023-03-25T03:06:30;102827.97;;;15.14;50.33
37832;BME280;23671;38.090;-122.570;2023-03-25T03:22:35;102845.53;;;14.76;49.86
37832;BME280;23671;38.090;-122.570;2023-03-25T03:30:30;102859.88;;;14.60;50.09
37832;BME280;23671;38.090;-122.570;2023-03-25T03:36:12;102857.88;;;14.49;49.88
37832;BME280;23671;38.090;-122.570;2023-03-25T03:38:53;102850.56;;;14.38;50.21
37832;BME280;23671;38.090;-122.570;2023-03-25T03:41:24;102852.38;;;14.38;50.27
37832;BME280;23671;38.090;-122.570;2023-03-25T03:44:24;102851.28;;;14.26;50.20
37832;BME280;23671;38.090;-122.570;2023-03-25T03:47:13;102862.25;;;14.20;50.04
37832;BME280;23671;38.090;-122.570;2023-03-25T03:49:46;102854.84;;;14.11;50.46
37832;BME280;23671;38.090;-122.570;2023-03-25T03:52:31;102864.41;;;14.00;50.32
37832;BME280;23671;38.090;-122.570;2023-03-25T03:55:27;102852.41;;;13.93;50.62
37832;BME280;23671;38.090;-122.570;2023-03-25T03:58:01;102866.81;;;13.89;50.74
37832;BME280;23671;38.090;-122.570;2023-03-25T04:03:44;102861.38;;;13.76;50.99
37832;BME280;23671;38.090;-122.570;2023-03-25T04:06:32;102858.31;;;13.68;51.48
37832;BME280;23671;38.090;-122.570;2023-03-25T04:09:14;102849.25;;;13.56;51.29
37832;BME280;23671;38.090;-122.570;2023-03-25T04:11:52;102851.25;;;13.53;51.21
37832;BME280;23671;38.090;-122.570;2023-03-25T04:14:20;102857.81;;;13.46;51.21
37832;BME280;23671;38.090;-122.570;2023-03-25T04:16:48;102856.47;;;13.39;51.65
37832;BME280;23671;38.090;-122.570;2023-03-25T04:19:15;102869.16;;;13.34;51.74
37832;BME280;23671;38.090;-122.570;2023-03-25T04:21:45;102865.47;;;13.36;51.61
37832;BME280;23671;38.090;-122.570;2023-03-25T04:24:15;102859.75;;;13.28;51.19
37832;BME280;23671;38.090;-122.570;2023-03-25T04:26:45;102863.50;;;13.24;51.27
37832;BME280;23671;38.090;-122.570;2023-03-25T04:29:13;102854.78;;;13.22;51.46
37832;BME280;23671;38.090;-122.570;2023-03-25T04:31:40;102858.69;;;13.15;51.71
37832;BME280;23671;38.090;-122.570;2023-03-25T04:34:15;102857.94;;;13.13;51.24
37832;BME280;23671;38.090;-122.570;2023-03-25T04:36:42;102857.09;;;13.13;51.55
37832;BME280;23671;38.090;-122.570;2023-03-25T04:39:10;102855.56;;;13.09;52.16
37832;BME280;23671;38.090;-122.570;2023-03-25T04:41:43;102848.53;;;13.23;52.58
37832;BME280;23671;38.090;-122.570;2023-03-25T04:44:10;102854.69;;;13.24;52.53
37832;BME280;23671;38.090;-122.570;2023-03-25T04:46:38;102861.78;;;13.23;52.54
37832;BME280;23671;38.090;-122.570;2023-03-25T04:49:05;102859.22;;;13.22;52.30
37832;BME280;23671;38.090;-122.570;2023-03-25T04:51:40;102852.47;;;13.16;52.64
37832;BME280;23671;38.090;-122.570;2023-03-25T04:54:10;102858.03;;;13.12;52.47
37832;BME280;23671;38.090;-122.570;2023-03-25T04:56:37;102852.28;;;13.04;52.41
37832;BME280;23671;38.090;-122.570;2023-03-25T04:59:05;102863.81;;;13.03;52.14
37832;BME280;23671;38.090;-122.570;2023-03-25T05:01:36;102856.97;;;12.99;52.53
37832;BME280;23671;38.090;-122.570;2023-03-25T05:04:08;102870.47;;;12.94;51.98
37832;BME280;23671;38.090;-122.570;2023-03-25T05:06:43;102867.03;;;12.92;51.82
37832;BME280;23671;38.090;-122.570;2023-03-25T05:09:14;102863.97;;;12.84;52.09
37832;BME280;23671;38.090;-122.570;2023-03-25T05:11:42;102866.97;;;12.78;52.14
37832;BME280;23671;38.090;-122.570;2023-03-25T05:14:11;102859.06;;;12.76;51.91
37832;BME280;23671;38.090;-122.570;2023-03-25T05:16:38;102848.72;;;12.72;52.29
37832;BME280;23671;38.090;-122.570;2023-03-25T05:19:06;102840.91;;;12.69;52.22
37832;BME280;23671;38.090;-122.570;2023-03-25T05:21:38;102842.78;;;12.67;52.63
37832;BME280;23671;38.090;-122.570;2023-03-25T05:24:08;102848.97;;;12.67;52.48
37832;BME280;23671;38.090;-122.570;2023-03-25T05:26:38;102857.19;;;12.63;52.55
37832;BME280;23671;38.090;-122.570;2023-03-25T05:29:12;102868.78;;;12.60;52.27
37832;BME280;23671;38.090;-122.570;2023-03-25T05:31:40;102867.16;;;12.58;52.42
37832;BME280;23671;38.090;-122.570;2023-03-25T05:34:07;102865.47;;;12.57;52.66
37832;BME280;23671;38.090;-122.570;2023-03-25T05:36:35;102864.69;;;12.55;52.68
37832;BME280;23671;38.090;-122.570;2023-03-25T05:39:02;102847.31;;;12.49;52.35
37832;BME280;23671;38.090;-122.570;2023-03-25T05:41:31;102844.91;;;12.45;52.15
37832;BME280;23671;38.090;-122.570;2023-03-25T05:43:59;102851.22;;;12.42;52.11
37832;BME280;23671;38.090;-122.570;2023-03-25T05:46:27;102849.59;;;12.40;52.88
37832;BME280;23671;38.090;-122.570;2023-03-25T05:48:57;102851.53;;;12.36;52.49
37832;BME280;23671;38.090;-122.570;2023-03-25T05:51:27;102843.66;;;12.35;52.40
37832;BME280;23671;38.090;-122.570;2023-03-25T05:53:54;102836.66;;;12.34;52.77
37832;BME280;23671;38.090;-122.570;2023-03-25T05:56:22;102829.66;;;12.33;52.47
37832;BME280;23671;38.090;-122.570;2023-03-25T05:58:51;102823.88;;;12.25;52.14
37832;BME280;23671;38.090;-122.570;2023-03-25T06:01:19;102831.00;;;12.24;52.21
37832;BME280;23671;38.090;-122.570;2023-03-25T06:03:47;102826.41;;;12.28;52.36
37832;BME280;23671;38.090;-122.570;2023-03-25T06:06:14;102829.34;;;12.22;52.94
37832;BME280;23671;38.090;-122.570;2023-03-25T06:08:48;102825.16;;;12.18;52.79
37832;BME280;23671;38.090;-122.570;2023-03-25T06:11:16;102826.16;;;12.15;52.56
37832;BME280;23671;38.090;-122.570;2023-03-25T06:13:45;102809.75;;;12.09;52.39
37832;BME280;23671;38.090;-122.570;2023-03-25T06:16:21;102809.75;;;12.09;52.88
37832;BME280;23671;38.090;-122.570;2023-03-25T06:18:50;102801.03;;;12.07;52.81
37832;BME280;23671;38.090;-122.570;2023-03-25T06:21:25;102792.06;;;12.09;52.08
37832;BME280;23671;38.090;-122.570;2023-03-25T06:23:53;102797.75;;;12.02;52.64
37832;BME280;23671;38.090;-122.570;2023-03-25T06:26:22;102801.34;;;12.01;52.46
37832;BME280;23671;38.090;-122.570;2023-03-25T06:28:49;102795.66;;;11.91;52.53
37832;BME280;23671;38.090;-122.570;2023-03-25T06:31:21;102787.81;;;11.90;52.70
37832;BME280;23671;38.090;-122.570;2023-03-25T06:33:52;102786.00;;;11.90;52.36
37832;BME280;23671;38.090;-122.570;2023-03-25T06:36:19;102795.81;;;11.88;52.63
37832;BME280;23671;38.090;-122.570;2023-03-25T06:38:47;102789.81;;;11.84;52.83
37832;BME280;23671;38.090;-122.570;2023-03-25T06:41:18;102792.66;;;11.81;52.84
37832;BME280;23671;38.090;-122.570;2023-03-25T06:43:47;102783.75;;;11.82;52.84
37832;BME280;23671;38.090;-122.570;2023-03-25T06:46:14;102779.53;;;11.78;53.07
37832;BME280;23671;38.090;-122.570;2023-03-25T06:48:42;102793.81;;;11.76;52.63
37832;BME280;23671;38.090;-122.570;2023-03-25T06:51:09;102786.78;;;11.75;52.89
37832;BME280;23671;38.090;-122.570;2023-03-25T06:53:36;102790.31;;;11.75;52.89
37832;BME280;23671;38.090;-122.570;2023-03-25T06:56:03;102787.88;;;11.71;53.12
37832;BME280;23671;38.090;-122.570;2023-03-25T06:58:30;102780.63;;;11.74;52.73
37832;BME280;23671;38.090;-122.570;2023-03-25T07:01:01;102799.34;;;11.71;53.06
37832;BME280;23671;38.090;-122.570;2023-03-25T07:03:32;102793.44;;;11.65;53.07
37832;BME280;23671;38.090;-122.570;2023-03-25T07:06:00;102788.16;;;11.65;52.85
37832;BME280;23671;38.090;-122.570;2023-03-25T07:08:27;102789.19;;;11.62;53.04
37832;BME280;23671;38.090;-122.570;2023-03-25T07:10:59;102788.63;;;11.56;53.00
37832;BME280;23671;38.090;-122.570;2023-03-25T07:13:28;102781.31;;;11.61;52.83
37832;BME280;23671;38.090;-122.570;2023-03-25T07:15:57;102784.19;;;11.56;53.14
37832;BME280;23671;38.090;-122.570;2023-03-25T07:18:28;102785.13;;;11.55;53.26
37832;BME280;23671;38.090;-122.570;2023-03-25T07:20:55;102793.22;;;11.52;53.18
37832;BME280;23671;38.090;-122.570;2023-03-25T07:23:22;102800.22;;;11.53;52.75
37832;BME280;23671;38.090;-122.570;2023-03-25T07:25:49;102792.44;;;11.50;53.21
37832;BME280;23671;38.090;-122.570;2023-03-25T07:28:16;102790.66;;;11.51;53.18
37832;BME280;23671;38.090;-122.570;2023-03-25T07:30:44;102793.75;;;11.42;53.13
37832;BME280;23671;38.090;-122.570;2023-03-25T07:33:11;102799.81;;;11.44;52.95
37832;BME280;23671;38.090;-122.570;2023-03-25T07:35:38;102797.25;;;11.42;52.77
37832;BME280;23671;38.090;-122.570;2023-03-25T07:38:05;102796.47;;;11.40;53.24
37832;BME280;23671;38.090;-122.570;2023-03-25T07:40:32;102789.78;;;11.33;53.52
37832;BME280;23671;38.090;-122.570;2023-03-25T07:42:59;102787.13;;;11.33;53.02
37832;BME280;23671;38.090;-122.570;2023-03-25T07:45:26;102793.34;;;11.32;53.23
37832;BME280;23671;38.090;-122.570;2023-03-25T07:47:53;102795.19;;;11.30;53.27
37832;BME280;23671;38.090;-122.570;2023-03-25T07:50:21;102790.69;;;11.32;53.21
37832;BME280;23671;38.090;-122.570;2023-03-25T07:52:49;102787.34;;;11.29;53.38
37832;BME280;23671;38.090;-122.570;2023-03-25T07:55:16;102788.34;;;11.26;53.11
37832;BME280;23671;38.090;-122.570;2023-03-25T07:57:44;102795.28;;;11.29;52.87
37832;BME280;23671;38.090;-122.570;2023-03-25T08:00:14;102782.94;;;11.29;53.08
37832;BME280;23671;38.090;-122.570;2023-03-25T08:02:41;102785.88;;;11.23;53.05
37832;BME280;23671;38.090;-122.570;2023-03-25T08:05:08;102783.22;;;11.23;53.25
37832;BME280;23671;38.090;-122.570;2023-03-25T08:07:36;102786.88;;;11.21;53.17
37832;BME280;23671;38.090;-122.570;2023-03-25T08:10:03;102787.81;;;11.20;53.38
37832;BME280;23671;38.090;-122.570;2023-03-25T08:12:30;102776.28;;;11.21;53.09
37832;BME280;23671;38.090;-122.570;2023-03-25T08:14:57;102777.22;;;11.20;53.47
37832;BME280;23671;38.090;-122.570;2023-03-25T08:17:25;102771.25;;;11.16;53.04
37832;BME280;23671;38.090;-122.570;2023-03-25T08:19:52;102775.03;;;11.11;53.22
37832;BME280;23671;38.090;-122.570;2023-03-25T08:22:19;102762.94;;;11.05;53.41
37832;BME280;23671;38.090;-122.570;2023-03-25T08:24:46;102763.97;;;11.03;52.92
37832;BME280;23671;38.090;-122.570;2023-03-25T08:27:13;102760.38;;;11.04;53.13
37832;BME280;23671;38.090;-122.570;2023-03-25T08:29:40;102760.75;;;10.96;53.30
37832;BME280;23671;38.090;-122.570;2023-03-25T08:32:07;102762.41;;;10.98;53.21
37832;BME280;23671;38.090;-122.570;2023-03-25T08:34:35;102761.75;;;10.93;53.11
37832;BME280;23671;38.090;-122.570;2023-03-25T08:37:06;102757.41;;;10.92;53.50
37832;BME280;23671;38.090;-122.570;2023-03-25T08:39:36;102761.84;;;10.92;53.28
37832;BME280;23671;38.090;-122.570;2023-03-25T08:42:08;102773.34;;;10.91;53.26
37832;BME280;23671;38.090;-122.570;2023-03-25T08:44:35;102767.41;;;10.86;53.38
37832;BME280;23671;38.090;-122.570;2023-03-25T08:47:02;102762.00;;;10.89;53.21
37832;BME280;23671;38.090;-122.570;2023-03-25T08:49:30;102757.63;;;10.88;53.12
37832;BME280;23671;38.090;-122.570;2023-03-25T08:51:57;102761.22;;;10.87;53.02
37832;BME280;23671;38.090;-122.570;2023-03-25T08:54:25;102756.06;;;10.84;53.35
37832;BME280;23671;38.090;-122.570;2023-03-25T08:56:53;102761.22;;;10.87;53.17
37832;BME280;23671;38.090;-122.570;2023-03-25T08:59:20;102755.22;;;10.83;53.20
37832;BME280;23671;38.090;-122.570;2023-03-25T09:01:48;102753.50;;;10.82;53.10
37832;BME280;23671;38.090;-122.570;2023-03-25T09:04:16;102751.72;;;10.83;52.96
37832;BME280;23671;38.090;-122.570;2023-03-25T09:06:43;102757.09;;;10.81;53.13
37832;BME280;23671;38.090;-122.570;2023-03-25T09:09:11;102760.91;;;10.74;53.20
37832;BME280;23671;38.090;-122.570;2023-03-25T09:11:38;102766.91;;;10.78;52.93
37832;BME280;23671;38.090;-122.570;2023-03-25T09:14:05;102760.78;;;10.77;53.03
37832;BME280;23671;38.090;-122.570;2023-03-25T09:16:32;102755.50;;;10.77;52.95
37832;BME280;23671;38.090;-122.570;2023-03-25T09:19:00;102758.22;;;10.76;52.84
37832;BME280;23671;38.090;-122.570;2023-03-25T09:21:27;102756.34;;;10.78;52.75
37832;BME280;23671;38.090;-122.570;2023-03-25T09:23:54;102759.22;;;10.73;53.14
37832;BME280;23671;38.090;-122.570;2023-03-25T09:26:21;102752.22;;;10.72;53.11
37832;BME280;23671;38.090;-122.570;2023-03-25T09:28:49;102741.88;;;10.68;53.17
37832;BME280;23671;38.090;-122.570;2023-03-25T09:31:16;102751.50;;;10.69;52.93
37832;BME280;23671;38.090;-122.570;2023-03-25T09:33:44;102739.16;;;10.69;52.95
37832;BME280;23671;38.090;-122.570;2023-03-25T09:36:11;102742.72;;;10.68;52.97
37832;BME280;23671;38.090;-122.570;2023-03-25T09:38:38;102733.16;;;10.66;52.71
37832;BME280;23671;38.090;-122.570;2023-03-25T09:44:02;102737.78;;;10.61;52.91
37832;BME280;23671;38.090;-122.570;2023-03-25T09:46:37;102734.38;;;10.59;53.06
37832;BME280;23671;38.090;-122.570;2023-03-25T09:49:52;102737.09;;;10.57;53.12
37832;BME280;23671;38.090;-122.570;2023-03-25T09:52:00;102732.66;;;10.58;52.88
37832;BME280;23671;38.090;-122.570;2023-03-25T09:54:32;102726.41;;;10.60;53.09
37832;BME280;23671;38.090;-122.570;2023-03-25T09:57:07;102725.66;;;10.57;53.04
37832;BME280;23671;38.090;-122.570;2023-03-25T09:59:42;102721.94;;;10.61;52.82
37832;BME280;23671;38.090;-122.570;2023-03-25T10:19:22;102711.25;;;10.45;52.89
37832;BME280;23671;38.090;-122.570;2023-03-25T10:22:14;102721.00;;;10.43;53.02
37832;BME280;23671;38.090;-122.570;2023-03-25T10:24:58;102710.69;;;10.39;53.26
37832;BME280;23671;38.090;-122.570;2023-03-25T10:27:39;102714.25;;;10.38;53.22
37832;BME280;23671;38.090;-122.570;2023-03-25T10:30:21;102702.84;;;10.37;52.87
37832;BME280;23671;38.090;-122.570;2023-03-25T10:33:03;102717.94;;;10.34;53.15
37832;BME280;23671;38.090;-122.570;2023-03-25T10:35:39;102710.97;;;10.33;52.74
37832;BME280;23671;38.090;-122.570;2023-03-25T10:38:18;102712.81;;;10.31;52.97
37832;BME280;23671;38.090;-122.570;2023-03-25T10:43:56;102709.56;;;10.26;53.03
37832;BME280;23671;38.090;-122.570;2023-03-25T10:49:24;102706.13;;;10.24;53.14
37832;BME280;23671;38.090;-122.570;2023-03-25T10:51:52;102705.47;;;10.19;53.17
37832;BME280;23671;38.090;-122.570;2023-03-25T10:54:23;102697.47;;;10.20;52.91
37832;BME280;23671;38.090;-122.570;2023-03-25T10:56:55;102696.56;;;10.21;52.75
37832;BME280;23671;38.090;-122.570;2023-03-25T10:59:37;102694.97;;;10.17;52.57
37832;BME280;23671;38.090;-122.570;2023-03-25T11:02:20;102703.69;;;10.19;52.66
37832;BME280;23671;38.090;-122.570;2023-03-25T11:04:51;102702.03;;;10.17;52.99
37832;BME280;23671;38.090;-122.570;2023-03-25T11:07:30;102696.13;;;10.12;52.94
37832;BME280;23671;38.090;-122.570;2023-03-25T11:10:21;102697.03;;;10.11;53.02
37832;BME280;23671;38.090;-122.570;2023-03-25T11:12:50;102695.50;;;10.05;52.87
37832;BME280;23671;38.090;-122.570;2023-03-25T11:15:22;102698.22;;;10.03;52.82
37832;BME280;23671;38.090;-122.570;2023-03-25T11:18:11;102694.00;;;9.99;52.92
37832;BME280;23671;38.090;-122.570;2023-03-25T11:20:47;102697.56;;;9.98;52.79
37832;BME280;23671;38.090;-122.570;2023-03-25T11:23:36;102699.41;;;9.96;52.78
37832;BME280;23671;38.090;-122.570;2023-03-25T11:26:28;102699.53;;;9.93;52.65
37832;BME280;23671;38.090;-122.570;2023-03-25T11:29:05;102703.13;;;9.92;53.06
37832;BME280;23671;38.090;-122.570;2023-03-25T11:31:37;102703.31;;;9.88;53.10
37832;BME280;23671;38.090;-122.570;2023-03-25T11:39:36;102699.09;;;9.84;53.16
37832;BME280;23671;38.090;-122.570;2023-03-25T11:44:55;102683.53;;;9.78;52.74
37832;BME280;23671;38.090;-122.570;2023-03-25T11:47:38;102688.88;;;9.76;52.71
37832;BME280;23671;38.090;-122.570;2023-03-25T11:50:16;102696.00;;;9.74;53.02
37832;BME280;23671;38.090;-122.570;2023-03-25T11:52:46;102703.28;;;9.69;52.78
37832;BME280;23671;38.090;-122.570;2023-03-25T11:55:27;102710.41;;;9.67;52.50
37832;BME280;23671;38.090;-122.570;2023-03-25T11:57:56;102708.66;;;9.66;52.59
37832;BME280;23671;38.090;-122.570;2023-03-25T12:00:37;102703.41;;;9.66;52.71
37832;BME280;23671;38.090;-122.570;2023-03-25T12:05:33;102706.28;;;9.60;52.50
37832;BME280;23671;38.090;-122.570;2023-03-25T12:08:18;102705.53;;;9.58;52.55
37832;BME280;23671;38.090;-122.570;2023-03-25T12:10:56;102700.44;;;9.54;52.45
37832;BME280;23671;38.090;-122.570;2023-03-25T12:19:10;102694.50;;;9.49;53.07
37832;BME280;23671;38.090;-122.570;2023-03-25T12:29:50;102696.66;;;9.39;52.48
37832;BME280;23671;38.090;-122.570;2023-03-25T12:34:56;102692.41;;;9.37;52.85
37832;BME280;23671;38.090;-122.570;2023-03-25T12:37:43;102690.75;;;9.34;52.50
37832;BME280;23671;38.090;-122.570;2023-03-25T12:43:43;102686.72;;;9.26;52.41
37832;BME280;23671;38.090;-122.570;2023-03-25T12:46:44;102688.50;;;9.25;52.76
37832;BME280;23671;38.090;-122.570;2023-03-25T12:55:05;102687.03;;;9.18;52.61
37832;BME280;23671;38.090;-122.570;2023-03-25T13:00:31;102677.53;;;9.14;52.79
37832;BME280;23671;38.090;-122.570;2023-03-25T13:03:56;102680.31;;;9.11;52.50
37832;BME280;23671;38.090;-122.570;2023-03-25T13:06:22;102688.38;;;9.08;52.50
37832;BME280;23671;38.090;-122.570;2023-03-25T13:12:25;102684.97;;;9.04;52.79
37832;BME280;23671;38.090;-122.570;2023-03-25T13:17:12;102684.31;;;8.99;52.30
37832;BME280;23671;38.090;-122.570;2023-03-25T13:19:41;102680.88;;;8.97;53.15
37832;BME280;23671;38.090;-122.570;2023-03-25T13:22:22;102688.06;;;8.94;52.48
37832;BME280;23671;38.090;-122.570;2023-03-25T13:25:00;102682.19;;;8.87;53.13
37832;BME280;23671;38.090;-122.570;2023-03-25T13:27:38;102683.84;;;8.90;52.33
37832;BME280;23671;38.090;-122.570;2023-03-25T13:33:22;102682.38;;;8.83;53.09
37832;BME280;23671;38.090;-122.570;2023-03-25T13:36:07;102679.84;;;8.80;52.82
37832;BME280;23671;38.090;-122.570;2023-03-25T13:38:49;102687.91;;;8.77;53.25
37832;BME280;23671;38.090;-122.570;2023-03-25T13:49:29;102685.56;;;8.69;52.93
37832;BME280;23671;38.090;-122.570;2023-03-25T13:51:58;102683.84;;;8.68;53.29
37832;BME280;23671;38.090;-122.570;2023-03-25T14:00:40;102682.38;;;8.61;52.83
37832;BME280;23671;38.090;-122.570;2023-03-25T14:02:54;102688.53;;;8.60;53.06
37832;BME280;23671;38.090;-122.570;2023-03-25T14:05:49;102685.13;;;8.58;53.18
37832;BME280;23671;38.090;-122.570;2023-03-25T14:11:14;102687.75;;;8.58;53.25
37832;BME280;23671;38.090;-122.570;2023-03-25T14:14:03;102687.00;;;8.55;53.03
37832;BME280;23671;38.090;-122.570;2023-03-25T14:16:39;102683.50;;;8.54;52.77
37832;BME280;23671;38.090;-122.570;2023-03-25T14:19:13;102686.16;;;8.54;52.70
37832;BME280;23671;38.090;-122.570;2023-03-25T14:21:46;102686.44;;;8.47;52.88
37832;BME280;23671;38.090;-122.570;2023-03-25T14:24:40;102696.09;;;8.48;52.90
37832;BME280;23671;38.090;-122.570;2023-03-25T14:29:53;102694.41;;;8.45;52.85
37832;BME280;23671;38.090;-122.570;2023-03-25T14:34:49;102692.75;;;8.43;52.79
37832;BME280;23671;38.090;-122.570;2023-03-25T14:37:26;102700.63;;;8.44;52.70
37832;BME280;23671;38.090;-122.570;2023-03-25T14:39:56;102703.41;;;8.40;53.43
37832;BME280;23671;38.090;-122.570;2023-03-25T14:42:57;102695.44;;;8.41;52.79
37832;BME280;23671;38.090;-122.570;2023-03-25T14:48:02;102695.66;;;8.37;52.92
37832;BME280;23671;38.090;-122.570;2023-03-25T14:50:32;102696.47;;;8.37;52.83
37832;BME280;23671;38.090;-122.570;2023-03-25T14:53:08;102698.38;;;8.34;53.25
37832;BME280;23671;38.090;-122.570;2023-03-25T14:55:46;102696.53;;;8.36;52.96
37832;BME280;23671;38.090;-122.570;2023-03-25T14:58:21;102693.91;;;8.36;52.90
37832;BME280;23671;38.090;-122.570;2023-03-25T15:01:12;102702.75;;;8.35;53.16
37832;BME280;23671;38.090;-122.570;2023-03-25T15:03:42;102697.41;;;8.36;53.36
37832;BME280;23671;38.090;-122.570;2023-03-25T15:06:11;102695.66;;;8.37;53.80
37832;BME280;23671;38.090;-122.570;2023-03-25T15:08:52;102693.13;;;8.34;53.03